Terminal Aerodrome Forecast
Issued by NWS Upton, NY

Current Version | Previous Version | Text Only | Print | Product List | Glossary On
Versions: 1 2 3 4 5 6 7 8 9 10 11 12 13 14 15 16 17 18 19 20 21 22 23 24 25 26 27 28 29 30 31 32 33 34 35
000
FTUS41 KOKX 250642 AAA
TAFISP
TAF AMD
KISP 250642Z 2507/2606 06003KT P6SM SCT008
      TEMPO 2507/2511 6SM BR BKN008
     FM251200 05007KT P6SM FEW008 FEW250
     FM251500 08010KT P6SM SKC
     FM251700 12012KT P6SM SKC
     FM251900 15014KT P6SM SKC
     FM260000 14008KT P6SM SKC
     FM260300 VRB03KT P6SM SKC=

USA.gov is the U.S. government's official web portal to all federal, state and local government web resources and services.